sensor_id;sensor_type;location;lat;lon;timestamp;pressure;altitude;pressure_sealevel;temperature;humidity
53719;BME280;39616;48.872;9.390;2023-07-08T00:01:07;98359.69;;;22.41;38.04
53719;BME280;39616;48.872;9.390;2023-07-08T00:03:39;98362.91;;;22.43;37.33
53719;BME280;39616;48.872;9.390;2023-07-08T00:06:19;98360.88;;;22.40;37.59
53719;BME280;39616;48.872;9.390;2023-07-08T00:08:50;98371.03;;;22.33;38.13
53719;BME280;39616;48.872;9.390;2023-07-08T00:11:20;98364.22;;;22.27;38.21
53719;BME280;39616;48.872;9.390;2023-07-08T00:13:51;98356.00;;;22.30;38.04
53719;BME280;39616;48.872;9.390;2023-07-08T00:16:23;98349.16;;;22.21;38.70
53719;BME280;39616;48.872;9.390;2023-07-08T00:18:54;98346.56;;;22.08;38.63
53719;BME280;39616;48.872;9.390;2023-07-08T00:21:24;98344.16;;;22.03;38.51
53719;BME280;39616;48.872;9.390;2023-07-08T00:23:54;98347.69;;;22.04;38.96
53719;BME280;39616;48.872;9.390;2023-07-08T00:26:27;98341.84;;;22.09;38.62
53719;BME280;39616;48.872;9.390;2023-07-08T00:28:58;98337.41;;;22.01;38.93
53719;BME280;39616;48.872;9.390;2023-07-08T00:31:29;98327.88;;;21.98;38.78
53719;BME280;39616;48.872;9.390;2023-07-08T00:34:02;98326.53;;;21.85;39.32
53719;BME280;39616;48.872;9.390;2023-07-08T00:36:33;98326.88;;;21.83;38.76
53719;BME280;39616;48.872;9.390;2023-07-08T00:39:13;98332.72;;;21.78;39.35
53719;BME280;39616;48.872;9.390;2023-07-08T00:41:44;98327.59;;;21.77;39.17
53719;BME280;39616;48.872;9.390;2023-07-08T00:44:15;98337.34;;;21.70;39.10
53719;BME280;39616;48.872;9.390;2023-07-08T00:47:02;98334.94;;;21.69;39.33
53719;BME280;39616;48.872;9.390;2023-07-08T00:49:46;98340.16;;;21.74;38.99
53719;BME280;39616;48.872;9.390;2023-07-08T00:52:28;98335.81;;;21.73;38.95
53719;BME280;39616;48.872;9.390;2023-07-08T00:55:03;98350.41;;;21.74;39.00
53719;BME280;39616;48.872;9.390;2023-07-08T00:57:38;98342.97;;;21.78;38.73
53719;BME280;39616;48.872;9.390;2023-07-08T01:00:12;98349.94;;;21.71;39.33
53719;BME280;39616;48.872;9.390;2023-07-08T01:02:49;98357.81;;;21.69;38.98
53719;BME280;39616;48.872;9.390;2023-07-08T01:05:25;98355.72;;;21.63;39.63
53719;BME280;39616;48.872;9.390;2023-07-08T01:07:59;98357.13;;;21.53;39.45
53719;BME280;39616;48.872;9.390;2023-07-08T01:10:38;98365.34;;;21.50;39.74
53719;BME280;39616;48.872;9.390;2023-07-08T01:13:10;98356.22;;;21.45;39.56
53719;BME280;39616;48.872;9.390;2023-07-08T01:15:43;98360.03;;;21.37;40.05
53719;BME280;39616;48.872;9.390;2023-07-08T01:18:17;98367.34;;;21.30;40.47
53719;BME280;39616;48.872;9.390;2023-07-08T01:20:51;98359.00;;;21.26;40.11
53719;BME280;39616;48.872;9.390;2023-07-08T01:23:25;98354.94;;;21.20;40.31
53719;BME280;39616;48.872;9.390;2023-07-08T01:25:56;98352.50;;;21.15;40.27
53719;BME280;39616;48.872;9.390;2023-07-08T01:28:27;98352.53;;;20.95;42.74
53719;BME280;39616;48.872;9.390;2023-07-08T01:30:59;98356.72;;;20.50;44.69
53719;BME280;39616;48.872;9.390;2023-07-08T01:33:30;98367.22;;;20.10;45.45
53719;BME280;39616;48.872;9.390;2023-07-08T01:36:03;98364.13;;;20.11;45.68
53719;BME280;39616;48.872;9.390;2023-07-08T01:38:34;98367.16;;;19.90;46.18
53719;BME280;39616;48.872;9.390;2023-07-08T01:41:05;98357.22;;;19.70;46.41
53719;BME280;39616;48.872;9.390;2023-07-08T01:43:36;98363.78;;;19.65;46.19
53719;BME280;39616;48.872;9.390;2023-07-08T01:46:17;98358.75;;;19.67;46.04
53719;BME280;39616;48.872;9.390;2023-07-08T01:48:55;98353.84;;;19.61;46.53
53719;BME280;39616;48.872;9.390;2023-07-08T01:51:26;98356.88;;;19.55;46.21
53719;BME280;39616;48.872;9.390;2023-07-08T01:53:57;98354.34;;;19.50;46.54
53719;BME280;39616;48.872;9.390;2023-07-08T01:56:28;98354.03;;;19.52;46.68
53719;BME280;39616;48.872;9.390;2023-07-08T01:58:58;98355.78;;;19.44;46.68
53719;BME280;39616;48.872;9.390;2023-07-08T02:01:29;98352.41;;;19.35;46.96
53719;BME280;39616;48.872;9.390;2023-07-08T02:03:59;98357.19;;;19.38;46.75
53719;BME280;39616;48.872;9.390;2023-07-08T02:06:29;98357.19;;;19.38;46.79
53719;BME280;39616;48.872;9.390;2023-07-08T02:08:59;98355.63;;;19.37;46.36
53719;BME280;39616;48.872;9.390;2023-07-08T02:11:30;98357.63;;;19.40;46.36
53719;BME280;39616;48.872;9.390;2023-07-08T02:14:00;98358.00;;;19.39;46.11
53719;BME280;39616;48.872;9.390;2023-07-08T02:16:31;98361.91;;;19.38;46.48
53719;BME280;39616;48.872;9.390;2023-07-08T02:19:01;98350.03;;;19.34;46.83
53719;BME280;39616;48.872;9.390;2023-07-08T02:21:31;98352.22;;;19.28;46.46
53719;BME280;39616;48.872;9.390;2023-07-08T02:24:02;98349.13;;;19.29;46.46
53719;BME280;39616;48.872;9.390;2023-07-08T02:26:32;98343.97;;;19.28;46.47
53719;BME280;39616;48.872;9.390;2023-07-08T02:29:03;98352.91;;;19.25;46.67
53719;BME280;39616;48.872;9.390;2023-07-08T02:31:33;98352.59;;;19.26;46.66
53719;BME280;39616;48.872;9.390;2023-07-08T02:34:04;98358.59;;;19.32;46.51
53719;BME280;39616;48.872;9.390;2023-07-08T02:36:34;98351.88;;;19.29;46.88
53719;BME280;39616;48.872;9.390;2023-07-08T02:39:05;98354.53;;;19.26;46.65
53719;BME280;39616;48.872;9.390;2023-07-08T02:41:36;98362.59;;;19.19;47.12
53719;BME280;39616;48.872;9.390;2023-07-08T02:44:06;98356.03;;;19.08;47.61
53719;BME280;39616;48.872;9.390;2023-07-08T02:46:37;98361.66;;;18.99;47.63
53719;BME280;39616;48.872;9.390;2023-07-08T02:49:07;98364.66;;;18.94;48.09
53719;BME280;39616;48.872;9.390;2023-07-08T02:51:37;98365.47;;;18.94;47.95
53719;BME280;39616;48.872;9.390;2023-07-08T02:54:08;98376.16;;;18.83;48.02
53719;BME280;39616;48.872;9.390;2023-07-08T02:56:38;98372.97;;;18.81;48.54
53719;BME280;39616;48.872;9.390;2023-07-08T02:59:08;98377.91;;;18.76;48.80
53719;BME280;39616;48.872;9.390;2023-07-08T03:01:38;98378.34;;;18.66;49.30
53719;BME280;39616;48.872;9.390;2023-07-08T03:04:11;98377.91;;;18.64;49.60
53719;BME280;39616;48.872;9.390;2023-07-08T03:06:45;98388.44;;;18.62;49.28
53719;BME280;39616;48.872;9.390;2023-07-08T03:09:16;98394.63;;;18.58;49.73
53719;BME280;39616;48.872;9.390;2023-07-08T03:11:47;98393.28;;;18.52;51.45
53719;BME280;39616;48.872;9.390;2023-07-08T03:14:17;98397.19;;;18.39;50.67
53719;BME280;39616;48.872;9.390;2023-07-08T03:16:47;98396.72;;;18.37;51.09
53719;BME280;39616;48.872;9.390;2023-07-08T03:19:18;98407.50;;;18.30;50.96
53719;BME280;39616;48.872;9.390;2023-07-08T03:21:50;98407.50;;;18.30;50.65
53719;BME280;39616;48.872;9.390;2023-07-08T03:24:20;98407.59;;;18.33;50.70
53719;BME280;39616;48.872;9.390;2023-07-08T03:26:50;98420.88;;;18.31;51.74
53719;BME280;39616;48.872;9.390;2023-07-08T03:29:24;98421.44;;;18.25;51.55
53719;BME280;39616;48.872;9.390;2023-07-08T03:31:54;98426.38;;;18.19;51.58
53719;BME280;39616;48.872;9.390;2023-07-08T03:34:24;98417.56;;;18.14;51.88
53719;BME280;39616;48.872;9.390;2023-07-08T03:36:54;98419.41;;;18.09;52.40
53719;BME280;39616;48.872;9.390;2023-07-08T03:39:25;98415.28;;;18.03;53.00
53719;BME280;39616;48.872;9.390;2023-07-08T03:41:55;98415.66;;;17.90;53.01
53719;BME280;39616;48.872;9.390;2023-07-08T03:44:26;98426.81;;;17.84;54.17
53719;BME280;39616;48.872;9.390;2023-07-08T03:46:56;98429.69;;;17.76;53.94
53719;BME280;39616;48.872;9.390;2023-07-08T03:49:26;98417.56;;;17.77;53.62
53719;BME280;39616;48.872;9.390;2023-07-08T03:51:57;98404.31;;;17.79;53.52
53719;BME280;39616;48.872;9.390;2023-07-08T03:54:27;98400.88;;;17.82;53.99
53719;BME280;39616;48.872;9.390;2023-07-08T03:56:57;98417.25;;;17.91;54.04
53719;BME280;39616;48.872;9.390;2023-07-08T03:59:28;98416.75;;;17.89;54.46
53719;BME280;39616;48.872;9.390;2023-07-08T04:01:58;98406.34;;;17.82;54.28
53719;BME280;39616;48.872;9.390;2023-07-08T04:04:28;98401.56;;;17.91;54.63
53719;BME280;39616;48.872;9.390;2023-07-08T04:06:59;98408.44;;;17.97;54.42
53719;BME280;39616;48.872;9.390;2023-07-08T04:09:29;98414.72;;;18.10;54.74
53719;BME280;39616;48.872;9.390;2023-07-08T04:11:59;98409.13;;;18.06;55.07
53719;BME280;39616;48.872;9.390;2023-07-08T04:14:30;98411.41;;;18.04;56.01
53719;BME280;39616;48.872;9.390;2023-07-08T04:17:00;98413.91;;;18.09;55.62
53719;BME280;39616;48.872;9.390;2023-07-08T04:19:30;98424.09;;;18.09;55.64
53719;BME280;39616;48.872;9.390;2023-07-08T04:22:01;98423.31;;;18.08;57.17
53719;BME280;39616;48.872;9.390;2023-07-08T04:24:32;98415.63;;;18.14;56.62
53719;BME280;39616;48.872;9.390;2023-07-08T04:27:03;98418.03;;;18.16;56.73
53719;BME280;39616;48.872;9.390;2023-07-08T04:29:33;98415.63;;;18.14;57.27
53719;BME280;39616;48.872;9.390;2023-07-08T04:32:05;98422.50;;;18.20;57.92
53719;BME280;39616;48.872;9.390;2023-07-08T04:34:35;98411.28;;;18.13;57.28
53719;BME280;39616;48.872;9.390;2023-07-08T04:37:07;98410.72;;;18.07;57.14
53719;BME280;39616;48.872;9.390;2023-07-08T04:39:38;98409.13;;;18.06;58.48
53719;BME280;39616;48.872;9.390;2023-07-08T04:42:08;98413.69;;;18.15;58.84
53719;BME280;39616;48.872;9.390;2023-07-08T04:44:38;98415.63;;;18.26;57.58
53719;BME280;39616;48.872;9.390;2023-07-08T04:47:09;98409.88;;;18.44;56.80
53719;BME280;39616;48.872;9.390;2023-07-08T04:49:42;98406.50;;;18.63;56.77
53719;BME280;39616;48.872;9.390;2023-07-08T04:52:13;98408.06;;;18.88;54.97
53719;BME280;39616;48.872;9.390;2023-07-08T04:54:44;98404.53;;;19.16;54.12
53719;BME280;39616;48.872;9.390;2023-07-08T04:57:14;98402.53;;;19.44;53.63
53719;BME280;39616;48.872;9.390;2023-07-08T04:59:46;98399.66;;;19.69;52.70
53719;BME280;39616;48.872;9.390;2023-07-08T05:02:17;98397.41;;;19.90;52.24
53719;BME280;39616;48.872;9.390;2023-07-08T05:04:47;98395.97;;;20.12;50.77
53719;BME280;39616;48.872;9.390;2023-07-08T05:07:17;98403.66;;;20.38;50.37
53719;BME280;39616;48.872;9.390;2023-07-08T05:09:48;98390.94;;;20.69;48.40
53719;BME280;39616;48.872;9.390;2023-07-08T05:12:18;98391.41;;;20.90;48.49
53719;BME280;39616;48.872;9.390;2023-07-08T05:14:48;98392.84;;;21.04;48.18
53719;BME280;39616;48.872;9.390;2023-07-08T05:17:19;98397.78;;;21.14;49.75
53719;BME280;39616;48.872;9.390;2023-07-08T05:19:49;98399.44;;;21.18;51.66
53719;BME280;39616;48.872;9.390;2023-07-08T05:22:21;98404.44;;;21.13;52.07
53719;BME280;39616;48.872;9.390;2023-07-08T05:24:55;98399.22;;;21.08;52.88
53719;BME280;39616;48.872;9.390;2023-07-08T05:27:26;98399.41;;;20.95;54.40
53719;BME280;39616;48.872;9.390;2023-07-08T05:29:56;98395.78;;;20.91;54.38
53719;BME280;39616;48.872;9.390;2023-07-08T05:32:27;98393.88;;;20.95;54.38
53719;BME280;39616;48.872;9.390;2023-07-08T05:34:57;98395.69;;;21.07;55.53
53719;BME280;39616;48.872;9.390;2023-07-08T05:37:28;98402.28;;;21.22;53.98
53719;BME280;39616;48.872;9.390;2023-07-08T05:39:59;98404.59;;;21.39;53.82
53719;BME280;39616;48.872;9.390;2023-07-08T05:42:32;98388.66;;;21.75;52.79
53719;BME280;39616;48.872;9.390;2023-07-08T05:45:04;98380.28;;;22.17;50.68
53719;BME280;39616;48.872;9.390;2023-07-08T05:47:37;98391.88;;;22.57;47.76
53719;BME280;39616;48.872;9.390;2023-07-08T05:50:07;98393.59;;;22.95;46.59
53719;BME280;39616;48.872;9.390;2023-07-08T05:52:38;98416.59;;;23.40;47.08
53719;BME280;39616;48.872;9.390;2023-07-08T05:55:08;98427.34;;;23.82;45.35
53719;BME280;39616;48.872;9.390;2023-07-08T05:57:39;98438.63;;;24.11;43.74
53719;BME280;39616;48.872;9.390;2023-07-08T06:00:09;98425.31;;;23.79;44.83
53719;BME280;39616;48.872;9.390;2023-07-08T06:02:41;98426.34;;;23.64;45.33
53719;BME280;39616;48.872;9.390;2023-07-08T06:05:11;98433.97;;;23.74;45.71
53719;BME280;39616;48.872;9.390;2023-07-08T06:07:41;98440.13;;;23.57;44.92
53719;BME280;39616;48.872;9.390;2023-07-08T06:10:11;98443.06;;;23.75;45.55
53719;BME280;39616;48.872;9.390;2023-07-08T06:12:42;98443.75;;;23.65;46.20
53719;BME280;39616;48.872;9.390;2023-07-08T06:15:12;98448.31;;;23.83;45.58
53719;BME280;39616;48.872;9.390;2023-07-08T06:17:42;98450.75;;;23.92;46.16
53719;BME280;39616;48.872;9.390;2023-07-08T06:20:13;98457.16;;;24.03;46.06
53719;BME280;39616;48.872;9.390;2023-07-08T06:22:43;98447.47;;;23.79;46.34
53719;BME280;39616;48.872;9.390;2023-07-08T06:25:13;98450.38;;;23.94;45.63
53719;BME280;39616;48.872;9.390;2023-07-08T06:27:44;98445.75;;;24.08;44.82
53719;BME280;39616;48.872;9.390;2023-07-08T06:30:14;98455.09;;;24.41;44.40
53719;BME280;39616;48.872;9.390;2023-07-08T06:32:44;98454.59;;;24.83;42.58
53719;BME280;39616;48.872;9.390;2023-07-08T06:35:15;98459.88;;;25.10;41.19
53719;BME280;39616;48.872;9.390;2023-07-08T06:37:45;98458.00;;;25.36;40.23
53719;BME280;39616;48.872;9.390;2023-07-08T06:40:16;98460.81;;;25.50;39.51
53719;BME280;39616;48.872;9.390;2023-07-08T06:42:47;98462.06;;;25.63;39.44
53719;BME280;39616;48.872;9.390;2023-07-08T06:45:18;98456.50;;;25.67;38.44
53719;BME280;39616;48.872;9.390;2023-07-08T06:47:48;98463.28;;;25.80;38.68
53719;BME280;39616;48.872;9.390;2023-07-08T06:50:18;98467.28;;;25.90;39.61
53719;BME280;39616;48.872;9.390;2023-07-08T06:52:49;98470.06;;;26.04;39.56
53719;BME280;39616;48.872;9.390;2023-07-08T06:55:19;98476.00;;;26.24;38.59
53719;BME280;39616;48.872;9.390;2023-07-08T06:57:49;98473.63;;;26.40;39.69
53719;BME280;39616;48.872;9.390;2023-07-08T07:00:20;98477.22;;;26.66;38.07
53719;BME280;39616;48.872;9.390;2023-07-08T07:02:50;98473.16;;;26.92;38.09
53719;BME280;39616;48.872;9.390;2023-07-08T07:05:20;98471.06;;;27.25;37.43
53719;BME280;39616;48.872;9.390;2023-07-08T07:07:50;98474.66;;;27.29;36.45
53719;BME280;39616;48.872;9.390;2023-07-08T07:10:22;98487.41;;;27.08;37.92
53719;BME280;39616;48.872;9.390;2023-07-08T07:12:53;98490.56;;;27.25;37.37
53719;BME280;39616;48.872;9.390;2023-07-08T07:15:23;98492.22;;;27.11;37.20
53719;BME280;39616;48.872;9.390;2023-07-08T07:17:55;98489.34;;;27.36;38.46
53719;BME280;39616;48.872;9.390;2023-07-08T07:20:25;98489.66;;;27.49;38.40
53719;BME280;39616;48.872;9.390;2023-07-08T07:22:56;98492.09;;;27.40;36.79
53719;BME280;39616;48.872;9.390;2023-07-08T07:25:26;98501.34;;;27.12;38.42
53719;BME280;39616;48.872;9.390;2023-07-08T07:27:56;98506.56;;;26.95;39.32
53719;BME280;39616;48.872;9.390;2023-07-08T07:30:28;98502.19;;;26.87;39.08
53719;BME280;39616;48.872;9.390;2023-07-08T07:32:59;98502.25;;;26.59;40.12
53719;BME280;39616;48.872;9.390;2023-07-08T07:35:30;98501.81;;;26.74;39.56
53719;BME280;39616;48.872;9.390;2023-07-08T07:38:00;98506.19;;;26.68;39.46
53719;BME280;39616;48.872;9.390;2023-07-08T07:40:30;98496.63;;;26.77;39.91
53719;BME280;39616;48.872;9.390;2023-07-08T07:43:01;98500.63;;;26.72;39.44
53719;BME280;39616;48.872;9.390;2023-07-08T07:45:34;98509.78;;;26.44;40.90
53719;BME280;39616;48.872;9.390;2023-07-08T07:48:04;98520.50;;;26.56;41.22
53719;BME280;39616;48.872;9.390;2023-07-08T07:50:35;98515.75;;;26.53;40.79
53719;BME280;39616;48.872;9.390;2023-07-08T07:53:05;98512.97;;;26.53;41.15
53719;BME280;39616;48.872;9.390;2023-07-08T07:55:36;98507.41;;;26.67;40.50
53719;BME280;39616;48.872;9.390;2023-07-08T07:58:06;98511.72;;;26.86;40.44
53719;BME280;39616;48.872;9.390;2023-07-08T08:00:38;98501.28;;;27.33;39.88
53719;BME280;39616;48.872;9.390;2023-07-08T08:03:09;98510.25;;;27.77;39.20
53719;BME280;39616;48.872;9.390;2023-07-08T08:05:39;98517.34;;;27.88;38.56
53719;BME280;39616;48.872;9.390;2023-07-08T08:08:09;98519.81;;;27.65;39.29
53719;BME280;39616;48.872;9.390;2023-07-08T08:10:40;98516.47;;;27.99;38.67
53719;BME280;39616;48.872;9.390;2023-07-08T08:13:10;98510.91;;;28.51;38.00
53719;BME280;39616;48.872;9.390;2023-07-08T08:15:41;98513.22;;;28.97;37.06
53719;BME280;39616;48.872;9.390;2023-07-08T08:18:11;98518.44;;;29.33;37.21
53719;BME280;39616;48.872;9.390;2023-07-08T08:20:42;98515.75;;;29.56;36.09
53719;BME280;39616;48.872;9.390;2023-07-08T08:23:12;98508.31;;;29.77;35.14
53719;BME280;39616;48.872;9.390;2023-07-08T08:25:42;98520.13;;;30.15;35.47
53719;BME280;39616;48.872;9.390;2023-07-08T08:28:13;98517.84;;;29.83;34.91
53719;BME280;39616;48.872;9.390;2023-07-08T08:30:50;98518.88;;;28.90;35.98
53719;BME280;39616;48.872;9.390;2023-07-08T08:33:20;98521.94;;;28.65;36.33
53719;BME280;39616;48.872;9.390;2023-07-08T08:35:51;98516.03;;;28.97;35.52
53719;BME280;39616;48.872;9.390;2023-07-08T08:38:21;98519.13;;;29.10;35.24
53719;BME280;39616;48.872;9.390;2023-07-08T08:40:51;98513.38;;;30.40;33.35
53719;BME280;39616;48.872;9.390;2023-07-08T08:43:23;98520.41;;;29.97;33.66
53719;BME280;39616;48.872;9.390;2023-07-08T08:46:04;98522.56;;;29.55;33.80
53719;BME280;39616;48.872;9.390;2023-07-08T08:48:46;98511.75;;;29.88;33.49
53719;BME280;39616;48.872;9.390;2023-07-08T08:51:22;98512.91;;;30.68;33.80
53719;BME280;39616;48.872;9.390;2023-07-08T08:53:56;98511.25;;;31.14;31.95
53719;BME280;39616;48.872;9.390;2023-07-08T08:56:29;98515.31;;;30.66;33.30
53719;BME280;39616;48.872;9.390;2023-07-08T08:59:17;98523.06;;;30.82;32.91
53719;BME280;39616;48.872;9.390;2023-07-08T09:01:51;98533.28;;;30.45;32.94
53719;BME280;39616;48.872;9.390;2023-07-08T09:04:33;98520.78;;;31.76;31.80
53719;BME280;39616;48.872;9.390;2023-07-08T09:07:16;98521.38;;;31.68;31.60
53719;BME280;39616;48.872;9.390;2023-07-08T09:12:22;98517.81;;;32.36;30.43
53719;BME280;39616;48.872;9.390;2023-07-08T09:14:54;98508.72;;;32.49;30.08
53719;BME280;39616;48.872;9.390;2023-07-08T09:17:32;98524.72;;;31.43;32.18
53719;BME280;39616;48.872;9.390;2023-07-08T09:23:04;98522.38;;;30.51;33.41
53719;BME280;39616;48.872;9.390;2023-07-08T09:25:44;98520.53;;;29.59;34.22
53719;BME280;39616;48.872;9.390;2023-07-08T09:28:16;98525.44;;;29.14;35.37
53719;BME280;39616;48.872;9.390;2023-07-08T09:30:49;98521.75;;;29.24;35.18
53719;BME280;39616;48.872;9.390;2023-07-08T09:33:24;98523.53;;;29.07;35.73
53719;BME280;39616;48.872;9.390;2023-07-08T09:35:54;98525.28;;;28.91;35.61
53719;BME280;39616;48.872;9.390;2023-07-08T09:38:24;98520.53;;;28.87;35.83
53719;BME280;39616;48.872;9.390;2023-07-08T09:40:55;98513.16;;;29.42;35.37
53719;BME280;39616;48.872;9.390;2023-07-08T09:43:38;98519.13;;;30.79;33.02
53719;BME280;39616;48.872;9.390;2023-07-08T09:46:11;98504.56;;;32.20;31.88
53719;BME280;39616;48.872;9.390;2023-07-08T09:48:42;98510.78;;;32.28;31.86
53719;BME280;39616;48.872;9.390;2023-07-08T09:51:15;98514.38;;;31.76;32.16
53719;BME280;39616;48.872;9.390;2023-07-08T09:53:45;98520.09;;;32.58;30.77
53719;BME280;39616;48.872;9.390;2023-07-08T09:56:16;98516.09;;;32.59;30.97
53719;BME280;39616;48.872;9.390;2023-07-08T09:58:46;98506.91;;;34.00;30.03
53719;BME280;39616;48.872;9.390;2023-07-08T10:01:25;98513.63;;;34.28;29.15
53719;BME280;39616;48.872;9.390;2023-07-08T10:04:01;98511.22;;;34.65;29.37
53719;BME280;39616;48.872;9.390;2023-07-08T10:06:33;98501.88;;;35.03;29.10
53719;BME280;39616;48.872;9.390;2023-07-08T10:09:23;98508.56;;;34.36;28.87
53719;BME280;39616;48.872;9.390;2023-07-08T10:11:59;98503.91;;;35.24;29.03
53719;BME280;39616;48.872;9.390;2023-07-08T10:14:51;98498.66;;;34.79;28.80
53719;BME280;39616;48.872;9.390;2023-07-08T10:17:22;98495.59;;;34.38;30.33
53719;BME280;39616;48.872;9.390;2023-07-08T10:19:53;98499.88;;;33.66;29.68
53719;BME280;39616;48.872;9.390;2023-07-08T10:22:54;98499.44;;;33.39;30.48
53719;BME280;39616;48.872;9.390;2023-07-08T10:27:59;98509.13;;;32.96;31.44
53719;BME280;39616;48.872;9.390;2023-07-08T10:30:41;98507.13;;;32.31;32.02
53719;BME280;39616;48.872;9.390;2023-07-08T10:44:13;98508.47;;;31.54;32.71
53719;BME280;39616;48.872;9.390;2023-07-08T10:47:15;98504.16;;;31.49;33.70
53719;BME280;39616;48.872;9.390;2023-07-08T10:55:29;98495.81;;;32.51;33.24
53719;BME280;39616;48.872;9.390;2023-07-08T11:01:21;98494.84;;;32.74;32.85
53719;BME280;39616;48.872;9.390;2023-07-08T11:06:52;98501.34;;;32.55;32.59
53719;BME280;39616;48.872;9.390;2023-07-08T11:09:37;98497.50;;;33.10;32.17
53719;BME280;39616;48.872;9.390;2023-07-08T11:17:52;98496.72;;;32.93;31.15
53719;BME280;39616;48.872;9.390;2023-07-08T11:20:35;98493.63;;;33.04;31.13
53719;BME280;39616;48.872;9.390;2023-07-08T11:23:22;98487.22;;;33.46;31.22
53719;BME280;39616;48.872;9.390;2023-07-08T11:26:47;98483.56;;;33.49;30.12
53719;BME280;39616;48.872;9.390;2023-07-08T11:28:54;98478.50;;;33.14;30.32
53719;BME280;39616;48.872;9.390;2023-07-08T11:31:30;98485.19;;;32.75;31.17
53719;BME280;39616;48.872;9.390;2023-07-08T11:34:01;98486.34;;;32.90;31.06
53719;BME280;39616;48.872;9.390;2023-07-08T11:36:33;98479.59;;;32.88;31.20
53719;BME280;39616;48.872;9.390;2023-07-08T11:42:16;98474.22;;;32.64;31.14
53719;BME280;39616;48.872;9.390;2023-07-08T11:44:51;98473.47;;;32.93;31.47
53719;BME280;39616;48.872;9.390;2023-07-08T11:47:37;98476.97;;;33.26;30.40
53719;BME280;39616;48.872;9.390;2023-07-08T11:50:29;98480.03;;;33.45;29.83
53719;BME280;39616;48.872;9.390;2023-07-08T11:53:07;98479.75;;;33.68;30.11
53719;BME280;39616;48.872;9.390;2023-07-08T11:58:25;98474.22;;;33.52;30.03
53719;BME280;39616;48.872;9.390;2023-07-08T12:01:19;98470.03;;;33.02;29.53
53719;BME280;39616;48.872;9.390;2023-07-08T12:03:59;98469.63;;;33.16;29.91
53719;BME280;39616;48.872;9.390;2023-07-08T12:09:22;98463.13;;;33.99;29.08
53719;BME280;39616;48.872;9.390;2023-07-08T12:12:02;98452.44;;;34.07;29.17
53719;BME280;39616;48.872;9.390;2023-07-08T12:14:35;98452.31;;;33.85;29.35
53719;BME280;39616;48.872;9.390;2023-07-08T12:17:11;98460.63;;;33.76;29.38
53719;BME280;39616;48.872;9.390;2023-07-08T12:19:43;98451.19;;;33.95;28.67
53719;BME280;39616;48.872;9.390;2023-07-08T12:22:15;98446.25;;;33.99;28.20
53719;BME280;39616;48.872;9.390;2023-07-08T12:24:46;98451.09;;;33.73;28.37
53719;BME280;39616;48.872;9.390;2023-07-08T12:27:16;98447.47;;;33.73;27.96
53719;BME280;39616;48.872;9.390;2023-07-08T12:29:46;98445.63;;;33.40;28.43
53719;BME280;39616;48.872;9.390;2023-07-08T12:32:17;98452.28;;;33.47;28.17
53719;BME280;39616;48.872;9.390;2023-07-08T12:34:52;98444.59;;;32.92;28.15
53719;BME280;39616;48.872;9.390;2023-07-08T12:37:23;98445.16;;;33.29;28.57
53719;BME280;39616;48.872;9.390;2023-07-08T12:39:55;98448.25;;;33.06;29.28
53719;BME280;39616;48.872;9.390;2023-07-08T12:42:32;98439.06;;;33.18;29.53
53719;BME280;39616;48.872;9.390;2023-07-08T12:45:12;98438.38;;;33.14;28.56
53719;BME280;39616;48.872;9.390;2023-07-08T12:47:44;98444.38;;;33.29;28.76
53719;BME280;39616;48.872;9.390;2023-07-08T12:50:15;98446.84;;;33.39;28.96
53719;BME280;39616;48.872;9.390;2023-07-08T12:52:46;98445.44;;;33.06;28.92
53719;BME280;39616;48.872;9.390;2023-07-08T12:55:17;98435.44;;;33.05;28.99
53719;BME280;39616;48.872;9.390;2023-07-08T12:57:49;98442.31;;;33.16;28.95
53719;BME280;39616;48.872;9.390;2023-07-08T13:00:29;98440.63;;;33.74;29.49
53719;BME280;39616;48.872;9.390;2023-07-08T13:03:06;98437.22;;;33.53;27.56
53719;BME280;39616;48.872;9.390;2023-07-08T13:05:37;98435.88;;;33.58;27.84
53719;BME280;39616;48.872;9.390;2023-07-08T13:08:17;98435.66;;;33.65;27.97
53719;BME280;39616;48.872;9.390;2023-07-08T13:10:50;98429.72;;;33.63;28.64
53719;BME280;39616;48.872;9.390;2023-07-08T13:13:24;98432.72;;;33.69;28.47
53719;BME280;39616;48.872;9.390;2023-07-08T13:15:54;98437.75;;;33.35;28.15
53719;BME280;39616;48.872;9.390;2023-07-08T13:18:37;98422.00;;;33.25;29.25
53719;BME280;39616;48.872;9.390;2023-07-08T13:21:13;98431.97;;;33.55;28.56
53719;BME280;39616;48.872;9.390;2023-07-08T13:23:45;98428.81;;;33.92;28.56
53719;BME280;39616;48.872;9.390;2023-07-08T13:26:21;98423.50;;;33.94;28.14
53719;BME280;39616;48.872;9.390;2023-07-08T13:28:59;98422.47;;;33.87;27.65
53719;BME280;39616;48.872;9.390;2023-07-08T13:31:34;98424.31;;;34.07;27.24
53719;BME280;39616;48.872;9.390;2023-07-08T13:34:06;98427.44;;;34.09;27.96
53719;BME280;39616;48.872;9.390;2023-07-08T13:36:39;98425.22;;;34.04;28.17
53719;BME280;39616;48.872;9.390;2023-07-08T13:39:17;98417.34;;;33.60;28.10
53719;BME280;39616;48.872;9.390;2023-07-08T13:41:49;98423.94;;;33.41;28.48
53719;BME280;39616;48.872;9.390;2023-07-08T13:44:20;98419.72;;;33.62;27.05
53719;BME280;39616;48.872;9.390;2023-07-08T13:46:55;98409.81;;;33.70;27.61
53719;BME280;39616;48.872;9.390;2023-07-08T13:49:43;98406.88;;;33.74;28.15
53719;BME280;39616;48.872;9.390;2023-07-08T13:52:17;98412.28;;;33.81;27.47
53719;BME280;39616;48.872;9.390;2023-07-08T13:55:01;98411.94;;;33.92;28.39
53719;BME280;39616;48.872;9.390;2023-07-08T13:57:38;98412.81;;;34.14;27.63
53719;BME280;39616;48.872;9.390;2023-07-08T14:00:09;98411.41;;;34.31;28.05
53719;BME280;39616;48.872;9.390;2023-07-08T14:02:44;98415.88;;;34.42;26.21
53719;BME280;39616;48.872;9.390;2023-07-08T14:05:14;98412.59;;;33.96;26.61
53719;BME280;39616;48.872;9.390;2023-07-08T14:07:50;98407.75;;;33.96;27.51
53719;BME280;39616;48.872;9.390;2023-07-08T14:10:25;98410.78;;;33.76;26.94
53719;BME280;39616;48.872;9.390;2023-07-08T14:12:56;98401.59;;;33.63;26.90
53719;BME280;39616;48.872;9.390;2023-07-08T14:15:27;98400.13;;;33.71;26.76